createdAt,value
2022-08-26T00:01:54.437Z,50.20
2022-08-26T00:04:23.805Z,50.39
2022-08-26T00:06:52.381Z,50.20
2022-08-26T00:09:19.515Z,50.36
2022-08-26T00:11:46.707Z,50.27
2022-08-26T00:14:16.394Z,50.37
2022-08-26T00:16:47.627Z,50.31
2022-08-26T00:19:28.541Z,50.89
2022-08-26T00:21:55.793Z,50.71
2022-08-26T00:24:23.534Z,50.64
2022-08-26T00:26:50.901Z,50.77
2022-08-26T00:29:19.050Z,51.06
2022-08-26T00:31:48.359Z,51.77
2022-08-26T00:34:16.766Z,52.34
2022-08-26T00:36:47.021Z,52.59
2022-08-26T00:39:14.238Z,52.29
2022-08-26T00:41:41.851Z,51.16
2022-08-26T00:44:11.200Z,51.91
2022-08-26T00:46:47.584Z,51.86
2022-08-26T00:49:40.765Z,51.59
2022-08-26T00:52:14.662Z,51.97
2022-08-26T00:54:53.496Z,52.66
2022-08-26T00:57:22.371Z,52.95
2022-08-26T00:59:56.856Z,53.62
2022-08-26T01:02:24.794Z,54.74
2022-08-26T01:04:57.840Z,54.05
2022-08-26T01:07:31.261Z,54.26
2022-08-26T01:10:01.899Z,53.89
2022-08-26T01:12:38.859Z,54.65
2022-08-26T01:15:11.255Z,54.82
2022-08-26T01:17:41.164Z,54.33
2022-08-26T01:20:24.828Z,54.33
2022-08-26T01:23:04.399Z,54.74
2022-08-26T01:25:34.967Z,54.59
2022-08-26T01:28:10.211Z,54.95
2022-08-26T01:30:40.500Z,55.44
2022-08-26T01:33:15.909Z,54.74
2022-08-26T01:35:44.216Z,54.62
2022-08-26T01:38:12.924Z,54.43
2022-08-26T01:40:43.075Z,54.08
2022-08-26T01:43:17.550Z,54.54
2022-08-26T01:45:46.873Z,54.87
2022-08-26T01:48:20.964Z,56.17
2022-08-26T01:50:48.464Z,56.27
2022-08-26T01:53:18.590Z,56.57
2022-08-26T01:55:53.299Z,56.43
2022-08-26T01:58:48.372Z,55.70
2022-08-26T02:01:16.939Z,55.33
2022-08-26T02:03:58.651Z,55.52
2022-08-26T02:06:25.906Z,55.75
2022-08-26T02:08:56.262Z,55.35
2022-08-26T02:11:23.680Z,55.95
2022-08-26T02:13:57.188Z,56.54
2022-08-26T02:16:32.221Z,57.32
2022-08-26T02:19:01.725Z,58.09
2022-08-26T02:21:31.078Z,57.12
2022-08-26T02:24:13.332Z,56.51
2022-08-26T02:26:40.879Z,56.30
2022-08-26T02:29:25.484Z,56.42
2022-08-26T02:31:55.758Z,56.54
2022-08-26T02:34:31.096Z,55.80
2022-08-26T02:37:01.292Z,57.01
2022-08-26T02:39:29.829Z,59.21
2022-08-26T02:41:58.116Z,60.31
2022-08-26T02:44:26.558Z,60.57
2022-08-26T02:46:54.695Z,60.25
2022-08-26T02:49:23.771Z,59.06
2022-08-26T02:51:51.879Z,58.38
2022-08-26T02:54:21.590Z,58.61
2022-08-26T02:56:49.373Z,58.80
2022-08-26T02:59:16.402Z,59.26
2022-08-26T03:01:45.268Z,59.65
2022-08-26T03:04:13.206Z,60.19
2022-08-26T03:06:42.335Z,59.88
2022-08-26T03:09:09.892Z,60.17
2022-08-26T03:11:41.201Z,59.96
2022-08-26T03:14:08.554Z,60.16
2022-08-26T03:16:37.838Z,60.59
2022-08-26T03:19:07.956Z,60.25
2022-08-26T03:21:37.070Z,60.43
2022-08-26T03:24:05.496Z,60.67
2022-08-26T03:26:32.621Z,61.81
2022-08-26T03:29:18.452Z,62.21
2022-08-26T03:31:47.066Z,61.69
2022-08-26T03:34:14.865Z,62.03
2022-08-26T03:36:42.276Z,62.37
2022-08-26T03:39:12.046Z,62.49
2022-08-26T03:41:40.636Z,63.38
2022-08-26T03:44:09.059Z,63.89
2022-08-26T03:46:37.384Z,63.26
2022-08-26T03:49:06.901Z,62.75
2022-08-26T03:51:38.746Z,63.53
2022-08-26T03:54:08.225Z,63.15
2022-08-26T03:56:36.779Z,63.43
2022-08-26T03:59:05.118Z,63.39
2022-08-26T04:01:34.967Z,63.86
2022-08-26T04:04:02.308Z,63.59
2022-08-26T04:06:36.000Z,62.63
2022-08-26T04:09:09.393Z,60.27
2022-08-26T04:11:39.613Z,57.86
2022-08-26T04:14:17.684Z,55.71
2022-08-26T04:16:48.328Z,53.37
2022-08-26T04:19:16.826Z,50.92
2022-08-26T04:21:45.130Z,49.10
2022-08-26T04:24:15.660Z,47.21
2022-08-26T04:26:43.881Z,44.11
2022-08-26T04:29:20.307Z,42.72
2022-08-26T04:31:55.567Z,40.87
2022-08-26T04:34:29.005Z,39.24
2022-08-26T04:36:58.057Z,38.42
2022-08-26T04:39:25.450Z,37.05
2022-08-26T04:41:55.661Z,35.57
2022-08-26T04:44:29.155Z,34.87
2022-08-26T04:46:57.452Z,34.37
2022-08-26T04:49:26.107Z,33.61
2022-08-26T04:51:55.022Z,35.67
2022-08-26T04:54:22.831Z,35.97
2022-08-26T04:56:52.239Z,34.53
2022-08-26T04:59:19.325Z,32.85
2022-08-26T05:01:51.753Z,33.10
2022-08-26T05:04:21.191Z,30.33
2022-08-26T05:06:48.735Z,30.78
2022-08-26T05:09:16.166Z,27.89
2022-08-26T05:11:43.192Z,27.75
2022-08-26T05:14:10.315Z,26.68
2022-08-26T05:16:38.982Z,26.02
2022-08-26T05:19:08.698Z,24.63
2022-08-26T05:21:36.574Z,23.12
2022-08-26T05:24:04.754Z,22.09
2022-08-26T05:26:32.543Z,21.65
2022-08-26T05:28:59.736Z,21.56
2022-08-26T05:31:31.861Z,22.46
2022-08-26T05:34:00.693Z,24.77
2022-08-26T05:36:34.959Z,25.26
2022-08-26T05:39:07.927Z,26.81
2022-08-26T05:41:41.477Z,28.64
2022-08-26T05:44:14.028Z,29.04
2022-08-26T05:46:42.499Z,28.52
2022-08-26T05:49:13.904Z,28.61
2022-08-26T05:51:47.560Z,30.63
2022-08-26T05:54:22.399Z,31.65
2022-08-26T05:56:51.356Z,31.37
2022-08-26T05:59:21.266Z,29.44
2022-08-26T06:01:53.225Z,30.05
2022-08-26T06:04:20.377Z,28.13
2022-08-26T06:06:47.589Z,27.68
2022-08-26T06:09:14.805Z,25.58
2022-08-26T06:11:45.524Z,27.12
2022-08-26T06:14:12.864Z,25.60
2022-08-26T06:16:45.547Z,22.99
2022-08-26T06:19:15.582Z,23.96
2022-08-26T06:21:47.219Z,25.09
2022-08-26T06:24:37.553Z,25.65
2022-08-26T06:27:09.658Z,26.61
2022-08-26T06:29:39.187Z,27.21
2022-08-26T06:32:06.923Z,26.33
2022-08-26T06:34:35.929Z,24.38
2022-08-26T06:37:03.535Z,24.10
2022-08-26T06:39:31.786Z,24.21
2022-08-26T06:42:00.822Z,24.12
2022-08-26T06:44:30.393Z,24.80
2022-08-26T06:46:57.534Z,24.91
2022-08-26T06:49:25.855Z,24.30
2022-08-26T06:51:59.615Z,23.53
2022-08-26T06:54:28.765Z,21.81
2022-08-26T06:56:57.205Z,21.53
2022-08-26T06:59:24.878Z,20.43
2022-08-26T07:01:52.443Z,19.42
2022-08-26T07:04:22.462Z,19.71
2022-08-26T07:06:53.394Z,19.87
2022-08-26T07:09:23.644Z,20.15
2022-08-26T07:11:51.873Z,19.77
2022-08-26T07:14:21.751Z,20.10
2022-08-26T07:16:50.644Z,20.00
2022-08-26T07:19:31.240Z,21.36
2022-08-26T07:22:04.438Z,22.45
2022-08-26T07:24:36.969Z,20.71
2022-08-26T07:27:08.858Z,21.25
2022-08-26T07:29:39.641Z,21.78
2022-08-26T07:32:08.351Z,21.22
2022-08-26T07:34:37.781Z,22.66
2022-08-26T07:37:06.117Z,21.87
2022-08-26T07:39:36.234Z,21.76
2022-08-26T07:42:08.061Z,22.13
2022-08-26T07:44:37.684Z,22.18
2022-08-26T07:47:10.072Z,22.58
2022-08-26T07:49:52.687Z,23.52
2022-08-26T07:52:25.343Z,22.73
2022-08-26T07:54:53.643Z,22.54
2022-08-26T07:57:20.864Z,21.42
2022-08-26T07:59:48.020Z,21.43
2022-08-26T08:02:15.098Z,22.13
2022-08-26T08:04:43.354Z,21.44
2022-08-26T08:07:11.539Z,21.50
2022-08-26T08:09:40.763Z,22.33
2022-08-26T08:12:08.291Z,22.33
2022-08-26T08:14:45.296Z,21.94
2022-08-26T08:17:14.536Z,22.60
2022-08-26T08:19:42.878Z,21.76
2022-08-26T08:22:17.116Z,22.59
2022-08-26T08:24:45.285Z,22.29
2022-08-26T08:27:18.141Z,22.58
2022-08-26T08:29:50.180Z,23.31
2022-08-26T08:32:18.428Z,22.67
2022-08-26T08:34:45.581Z,23.94
2022-08-26T08:37:12.591Z,24.43
2022-08-26T08:39:39.656Z,24.02
2022-08-26T08:42:28.675Z,25.11
2022-08-26T08:44:59.865Z,25.70
2022-08-26T08:47:39.394Z,26.21
2022-08-26T08:50:30.564Z,26.66
2022-08-26T08:53:37.705Z,26.39
2022-08-26T08:56:10.904Z,25.70
2022-08-26T08:58:46.590Z,25.75
2022-08-26T09:01:30.239Z,26.36
2022-08-26T09:04:33.710Z,26.73
2022-08-26T09:07:03.015Z,26.77
2022-08-26T09:09:46.188Z,26.72
2022-08-26T09:12:29.383Z,27.45
2022-08-26T09:15:30.436Z,26.45
2022-08-26T09:18:21.514Z,26.23
2022-08-26T09:21:07.906Z,26.23
2022-08-26T09:23:38.700Z,25.92
2022-08-26T09:26:30.915Z,25.57
2022-08-26T09:29:08.995Z,25.24
2022-08-26T09:31:39.180Z,25.29
2022-08-26T09:34:26.462Z,26.52
2022-08-26T09:37:00.191Z,25.55
2022-08-26T09:39:38.166Z,25.17
2022-08-26T09:42:25.621Z,25.01
2022-08-26T09:45:06.910Z,26.30
2022-08-26T09:47:39.310Z,26.62
2022-08-26T09:50:50.018Z,28.33
2022-08-26T09:53:25.218Z,27.96
2022-08-26T09:56:25.502Z,28.29
2022-08-26T09:58:56.702Z,29.05
2022-08-26T10:01:23.698Z,29.25
2022-08-26T10:03:51.966Z,29.13
2022-08-26T10:06:20.962Z,29.59
2022-08-26T10:09:09.688Z,28.81
2022-08-26T10:11:57.275Z,28.91
2022-08-26T10:14:37.220Z,29.05
2022-08-26T10:17:32.938Z,29.21
2022-08-26T10:20:27.444Z,28.96
2022-08-26T10:23:14.097Z,28.62
2022-08-26T10:26:08.504Z,29.07
2022-08-26T10:28:56.718Z,28.80
2022-08-26T10:31:55.172Z,29.15
2022-08-26T10:34:29.705Z,28.73
2022-08-26T10:37:13.874Z,29.65
2022-08-26T10:39:57.200Z,27.93
2022-08-26T10:42:42.806Z,27.80
2022-08-26T10:45:16.598Z,28.44
2022-08-26T10:48:16.537Z,30.18
2022-08-26T10:50:47.984Z,29.69
2022-08-26T10:53:18.269Z,29.23
2022-08-26T10:56:15.698Z,28.97
2022-08-26T10:59:18.226Z,29.09
2022-08-26T11:02:11.235Z,28.58
2022-08-26T11:04:56.166Z,28.05
2022-08-26T11:07:43.127Z,28.31
2022-08-26T11:10:22.924Z,27.84
2022-08-26T11:13:19.062Z,27.67
2022-08-26T11:15:45.900Z,28.55
2022-08-26T11:18:42.694Z,27.60
2022-08-26T11:22:06.131Z,26.53
2022-08-26T11:24:44.729Z,27.01
2022-08-26T11:27:24.316Z,26.90
2022-08-26T11:30:01.710Z,27.65
2022-08-26T11:32:34.733Z,28.54
2022-08-26T11:35:12.069Z,27.83
2022-08-26T11:38:25.172Z,27.63
2022-08-26T11:41:08.851Z,27.93
2022-08-26T11:43:39.570Z,27.79
2022-08-26T11:46:11.181Z,27.89
2022-08-26T11:48:42.704Z,27.25
2022-08-26T11:51:13.851Z,28.16
2022-08-26T11:53:47.103Z,27.29
2022-08-26T11:56:34.640Z,28.23
2022-08-26T11:59:12.836Z,27.13
2022-08-26T12:01:44.606Z,27.47
2022-08-26T12:04:31.420Z,27.19
2022-08-26T12:07:00.983Z,27.24
2022-08-26T12:09:34.608Z,27.08
2022-08-26T12:12:18.046Z,26.98
2022-08-26T12:14:45.406Z,27.15
2022-08-26T12:17:18.577Z,27.19
2022-08-26T12:19:46.467Z,26.24
2022-08-26T12:22:26.538Z,26.55
2022-08-26T12:24:58.601Z,26.55
2022-08-26T12:27:32.687Z,26.58
2022-08-26T12:30:09.034Z,27.57
2022-08-26T12:32:57.609Z,27.64
2022-08-26T12:35:28.918Z,27.51
2022-08-26T12:37:57.628Z,26.88
2022-08-26T12:40:41.870Z,26.91
2022-08-26T12:43:11.667Z,26.56
2022-08-26T12:45:58.112Z,26.51
2022-08-26T12:48:35.983Z,26.11
2022-08-26T12:51:04.019Z,25.04
2022-08-26T12:53:34.906Z,24.40
2022-08-26T12:56:20.239Z,24.54
2022-08-26T12:59:23.780Z,24.91
2022-08-26T13:01:52.342Z,25.28
2022-08-26T13:04:32.271Z,25.18
2022-08-26T13:07:24.934Z,24.63
2022-08-26T13:09:58.114Z,23.86
2022-08-26T13:12:33.654Z,24.55
2022-08-26T13:15:02.199Z,23.99
2022-08-26T13:17:30.958Z,23.97
2022-08-26T13:20:03.475Z,23.39
2022-08-26T13:22:31.491Z,23.93
2022-08-26T13:24:58.725Z,23.88
2022-08-26T13:27:27.404Z,24.14
2022-08-26T13:29:57.198Z,24.86
2022-08-26T13:32:27.659Z,24.71
2022-08-26T13:34:56.671Z,24.48
2022-08-26T13:37:34.995Z,24.29
2022-08-26T13:40:05.642Z,24.65
2022-08-26T13:42:32.980Z,24.23
2022-08-26T13:45:01.976Z,24.56
2022-08-26T13:47:29.059Z,25.00
2022-08-26T13:49:56.491Z,24.88
2022-08-26T13:52:27.302Z,25.34
2022-08-26T13:55:00.883Z,25.17
2022-08-26T13:57:30.238Z,25.27
2022-08-26T13:59:59.544Z,26.12
2022-08-26T14:02:28.358Z,25.45
2022-08-26T14:04:56.052Z,25.63
2022-08-26T14:07:23.556Z,25.74
2022-08-26T14:09:50.852Z,26.21
2022-08-26T14:12:17.961Z,25.45
2022-08-26T14:14:45.156Z,25.44
2022-08-26T14:17:18.266Z,25.46
2022-08-26T14:19:47.649Z,25.50
2022-08-26T14:22:17.483Z,25.29
2022-08-26T14:24:45.673Z,25.53
2022-08-26T14:27:13.723Z,25.75
2022-08-26T14:29:41.539Z,25.83
2022-08-26T14:32:16.961Z,25.84
2022-08-26T14:34:48.076Z,25.87
2022-08-26T14:37:15.515Z,26.11
2022-08-26T14:39:42.672Z,26.59
2022-08-26T14:42:10.532Z,26.26
2022-08-26T14:44:37.706Z,26.82
2022-08-26T14:47:06.753Z,26.05
2022-08-26T14:49:33.777Z,26.24
2022-08-26T14:52:00.990Z,26.53
2022-08-26T14:54:29.522Z,26.68
2022-08-26T14:57:03.855Z,27.13
2022-08-26T14:59:39.014Z,26.48
2022-08-26T15:02:08.884Z,27.08
2022-08-26T15:04:41.542Z,26.25
2022-08-26T15:07:12.737Z,26.47
2022-08-26T15:09:40.072Z,26.10
2022-08-26T15:12:07.318Z,26.55
2022-08-26T15:14:34.434Z,26.76
2022-08-26T15:17:02.469Z,26.83
2022-08-26T15:19:29.624Z,27.41
2022-08-26T15:21:56.775Z,27.20
2022-08-26T15:24:26.316Z,27.44
2022-08-26T15:26:53.761Z,26.78
2022-08-26T15:29:22.824Z,26.57
2022-08-26T15:31:50.457Z,26.70
2022-08-26T15:34:17.813Z,26.20
2022-08-26T15:36:47.090Z,26.10
2022-08-26T15:39:17.191Z,26.09
2022-08-26T15:41:44.795Z,26.22
2022-08-26T15:44:14.114Z,25.58
2022-08-26T15:46:42.577Z,25.99
2022-08-26T15:49:12.037Z,25.70
2022-08-26T15:51:46.165Z,25.42
2022-08-26T15:54:16.718Z,26.37
2022-08-26T15:56:45.545Z,26.19
2022-08-26T15:59:15.379Z,26.20
2022-08-26T16:01:43.810Z,25.96
2022-08-26T16:04:11.549Z,26.49
2022-08-26T16:06:41.217Z,26.53
2022-08-26T16:09:10.125Z,26.77
2022-08-26T16:11:38.015Z,26.87
2022-08-26T16:14:06.355Z,26.87
2022-08-26T16:16:33.640Z,27.24
2022-08-26T16:19:05.502Z,26.88
2022-08-26T16:21:34.282Z,27.20
2022-08-26T16:24:01.325Z,27.14
2022-08-26T16:26:32.815Z,27.44
2022-08-26T16:29:03.024Z,27.85
2022-08-26T16:31:30.410Z,27.43
2022-08-26T16:33:58.201Z,27.36
2022-08-26T16:36:25.382Z,27.80
2022-08-26T16:38:56.255Z,28.07
2022-08-26T16:41:27.170Z,27.75
2022-08-26T16:43:55.130Z,28.22
2022-08-26T16:46:26.291Z,28.05
2022-08-26T16:48:58.609Z,28.47
2022-08-26T16:51:27.900Z,28.81
2022-08-26T16:53:57.245Z,28.25
2022-08-26T16:56:33.507Z,28.75
2022-08-26T16:59:04.196Z,28.82
2022-08-26T17:01:31.400Z,29.11
2022-08-26T17:03:58.549Z,28.70
2022-08-26T17:06:25.564Z,28.70
2022-08-26T17:08:53.161Z,29.06
2022-08-26T17:11:20.273Z,29.13
2022-08-26T17:13:47.361Z,29.47
2022-08-26T17:16:16.274Z,29.12
2022-08-26T17:18:43.520Z,29.11
2022-08-26T17:21:13.730Z,29.12
2022-08-26T17:23:43.636Z,29.34
2022-08-26T17:26:12.570Z,29.56
2022-08-26T17:28:40.411Z,29.52
2022-08-26T17:31:08.396Z,29.55
2022-08-26T17:33:35.607Z,29.83
2022-08-26T17:36:09.674Z,30.27
2022-08-26T17:38:38.070Z,30.38
2022-08-26T17:41:12.755Z,30.57
2022-08-26T17:43:40.689Z,30.66
2022-08-26T17:46:10.790Z,30.71
2022-08-26T17:48:39.829Z,30.72
2022-08-26T17:51:17.220Z,31.21
2022-08-26T17:53:44.958Z,31.27
2022-08-26T17:56:15.699Z,31.89
2022-08-26T17:58:47.926Z,32.10
2022-08-26T18:01:23.731Z,32.00
2022-08-26T18:03:50.846Z,32.20
2022-08-26T18:06:19.726Z,32.48
2022-08-26T18:08:47.011Z,32.47
2022-08-26T18:11:19.251Z,32.96
2022-08-26T18:13:47.890Z,32.60
2022-08-26T18:16:18.084Z,32.79
2022-08-26T18:18:46.890Z,32.93
2022-08-26T18:21:20.702Z,33.46
2022-08-26T18:23:48.693Z,33.63
2022-08-26T18:26:19.574Z,33.87
2022-08-26T18:28:46.776Z,33.64
2022-08-26T18:31:15.327Z,34.14
2022-08-26T18:33:43.723Z,34.41
2022-08-26T18:36:29.861Z,34.62
2022-08-26T18:38:58.085Z,34.97
2022-08-26T18:41:28.794Z,34.83
2022-08-26T18:43:56.374Z,34.76
2022-08-26T18:46:26.709Z,34.87
2022-08-26T18:48:55.253Z,34.74
2022-08-26T18:51:26.856Z,35.23
2022-08-26T18:53:54.028Z,35.30
2022-08-26T18:56:21.098Z,35.11
2022-08-26T18:58:48.621Z,35.17
2022-08-26T19:01:17.691Z,35.42
2022-08-26T19:03:45.917Z,35.39
2022-08-26T19:06:20.388Z,35.64
2022-08-26T19:08:49.983Z,36.37
2022-08-26T19:11:32.285Z,36.14
2022-08-26T19:14:10.100Z,36.46
2022-08-26T19:16:37.663Z,36.23
2022-08-26T19:19:05.131Z,36.21
2022-08-26T19:21:34.742Z,36.39
2022-08-26T19:24:04.916Z,36.74
2022-08-26T19:26:32.284Z,37.28
2022-08-26T19:29:00.289Z,37.52
2022-08-26T19:31:28.385Z,37.64
2022-08-26T19:33:56.681Z,37.67
2022-08-26T19:36:26.101Z,37.81
2022-08-26T19:38:54.570Z,37.94
2022-08-26T19:41:37.287Z,37.76
2022-08-26T19:44:35.359Z,37.98
2022-08-26T19:47:03.800Z,38.47
2022-08-26T19:49:31.473Z,38.39
2022-08-26T19:51:58.785Z,38.35
2022-08-26T19:54:26.031Z,38.26
2022-08-26T19:56:53.163Z,38.44
2022-08-26T19:59:20.737Z,38.76
2022-08-26T20:01:52.932Z,38.77
2022-08-26T20:04:28.015Z,39.01
2022-08-26T20:06:57.584Z,39.13
2022-08-26T20:09:25.756Z,39.19
2022-08-26T20:11:54.023Z,39.30
2022-08-26T20:14:25.473Z,39.35
2022-08-26T20:16:52.638Z,39.33
2022-08-26T20:19:38.480Z,39.62
2022-08-26T20:22:06.516Z,40.22
2022-08-26T20:24:35.693Z,39.72
2022-08-26T20:27:07.784Z,40.10
2022-08-26T20:29:36.983Z,40.29
2022-08-26T20:32:06.893Z,40.07
2022-08-26T20:34:35.245Z,40.64
2022-08-26T20:37:04.314Z,40.59
2022-08-26T20:39:31.423Z,40.63
2022-08-26T20:41:58.636Z,40.79
2022-08-26T20:44:27.166Z,40.88
2022-08-26T20:46:55.294Z,41.11
2022-08-26T20:49:22.399Z,40.83
2022-08-26T20:51:52.608Z,40.63
2022-08-26T20:54:26.276Z,41.08
2022-08-26T20:56:57.853Z,41.27
2022-08-26T20:59:26.305Z,41.67
2022-08-26T21:01:53.400Z,41.99
2022-08-26T21:04:24.316Z,42.64
2022-08-26T21:06:52.741Z,42.65
2022-08-26T21:09:23.010Z,43.02
2022-08-26T21:11:51.330Z,43.46
2022-08-26T21:14:20.618Z,43.38
2022-08-26T21:16:48.027Z,43.31
2022-08-26T21:19:18.230Z,43.30
2022-08-26T21:21:47.998Z,43.76
2022-08-26T21:24:15.531Z,44.51
2022-08-26T21:26:43.394Z,44.69
2022-08-26T21:29:10.485Z,44.51
2022-08-26T21:31:43.550Z,44.84
2022-08-26T21:34:14.014Z,45.21
2022-08-26T21:36:41.056Z,45.88
2022-08-26T21:39:11.673Z,46.13
2022-08-26T21:41:40.704Z,46.26
2022-08-26T21:44:08.902Z,46.76
2022-08-26T21:46:37.401Z,46.16
2022-08-26T21:49:09.704Z,46.87
2022-08-26T21:51:41.246Z,46.68
2022-08-26T21:54:11.304Z,46.05
2022-08-26T21:56:44.360Z,46.97
2022-08-26T21:59:12.410Z,46.84
2022-08-26T22:01:39.529Z,46.86
2022-08-26T22:04:09.541Z,46.87
2022-08-26T22:06:45.614Z,48.05
2022-08-26T22:09:15.732Z,48.06
2022-08-26T22:11:43.222Z,47.96
2022-08-26T22:14:11.097Z,47.61
2022-08-26T22:16:38.388Z,48.24
2022-08-26T22:19:05.926Z,48.57
2022-08-26T22:21:35.420Z,48.84
2022-08-26T22:24:04.770Z,48.74
2022-08-26T22:26:34.610Z,49.52
2022-08-26T22:29:02.544Z,50.02
2022-08-26T22:31:37.268Z,49.68
2022-08-26T22:34:12.098Z,49.92
2022-08-26T22:36:44.694Z,49.74
2022-08-26T22:39:18.911Z,50.58
2022-08-26T22:41:48.807Z,50.71
2022-08-26T22:44:18.060Z,49.99
2022-08-26T22:46:46.774Z,50.03
2022-08-26T22:49:16.534Z,50.73
2022-08-26T22:51:45.058Z,50.73
2022-08-26T22:54:13.004Z,51.07
2022-08-26T22:56:40.771Z,50.66
2022-08-26T22:59:09.504Z,50.98
2022-08-26T23:01:40.104Z,51.24
2022-08-26T23:04:08.551Z,51.36
2022-08-26T23:06:38.390Z,52.43
2022-08-26T23:09:07.378Z,52.01
2022-08-26T23:11:34.866Z,51.90
2022-08-26T23:14:05.063Z,52.41
2022-08-26T23:16:41.715Z,53.29
2022-08-26T23:19:12.434Z,53.04
2022-08-26T23:21:39.975Z,53.25
2022-08-26T23:24:08.693Z,53.49
2022-08-26T23:26:37.367Z,53.84
2022-08-26T23:29:08.174Z,54.20
2022-08-26T23:31:38.878Z,54.59
2022-08-26T23:34:25.066Z,54.73
2022-08-26T23:36:52.841Z,54.92
2022-08-26T23:39:21.244Z,55.38
2022-08-26T23:41:48.527Z,55.75
2022-08-26T23:44:15.564Z,55.96
2022-08-26T23:46:42.679Z,55.70
2022-08-26T23:49:09.805Z,56.34
2022-08-26T23:51:57.374Z,56.64
2022-08-26T23:54:25.477Z,57.66
2022-08-26T23:56:52.528Z,57.80
2022-08-26T23:59:19.638Z,57.88
